createdAt,value
2017-09-05T00:02:04.806Z,84.80
2017-09-05T00:04:33.159Z,84.58
2017-09-05T00:07:01.479Z,83.99
2017-09-05T00:09:29.827Z,83.25
2017-09-05T00:11:59.114Z,82.97
2017-09-05T00:14:35.871Z,82.32
2017-09-05T00:17:04.893Z,82.37
2017-09-05T00:22:32.698Z,82.69
2017-09-05T00:25:01.049Z,82.52
2017-09-05T00:27:29.365Z,82.42
2017-09-05T00:29:57.680Z,83.18
2017-09-05T00:32:26.023Z,83.79
2017-09-05T00:34:54.338Z,83.31
2017-09-05T00:37:22.659Z,83.91
2017-09-05T00:39:50.998Z,84.17
2017-09-05T00:42:19.317Z,83.96
2017-09-05T00:44:47.650Z,83.91
2017-09-05T00:47:15.966Z,83.47
2017-09-05T00:49:44.278Z,83.64
2017-09-05T00:52:12.625Z,83.88
2017-09-05T00:54:40.947Z,83.38
2017-09-05T00:57:09.268Z,82.63
2017-09-05T00:59:37.615Z,83.03
2017-09-05T01:02:05.944Z,83.01
2017-09-05T01:04:34.251Z,82.42
2017-09-05T01:07:02.591Z,82.37
2017-09-05T01:09:30.911Z,81.40
2017-09-05T01:11:59.259Z,81.97
2017-09-05T01:14:27.575Z,81.92
2017-09-05T01:16:55.935Z,82.48
2017-09-05T01:19:24.270Z,82.49
2017-09-05T01:21:52.588Z,83.06
2017-09-05T01:24:20.930Z,82.42
2017-09-05T01:26:49.246Z,82.19
2017-09-05T01:29:17.566Z,81.70
2017-09-05T01:31:45.909Z,82.17
2017-09-05T01:34:14.226Z,82.98
2017-09-05T01:36:42.554Z,82.24
2017-09-05T01:39:10.889Z,82.44
2017-09-05T01:41:39.205Z,82.64
2017-09-05T01:44:07.539Z,82.61
2017-09-05T01:46:35.880Z,82.12
2017-09-05T01:49:04.190Z,81.80
2017-09-05T01:51:32.539Z,81.68
2017-09-05T01:54:00.854Z,81.74
2017-09-05T01:56:29.203Z,81.63
2017-09-05T01:58:57.514Z,81.96
2017-09-05T02:01:25.858Z,81.62
2017-09-05T02:03:54.185Z,81.46
2017-09-05T02:06:22.498Z,81.45
2017-09-05T02:08:50.839Z,80.64
2017-09-05T02:11:19.154Z,80.40
2017-09-05T02:13:47.471Z,80.22
2017-09-05T02:16:15.814Z,81.16
2017-09-05T02:18:44.134Z,80.87
2017-09-05T02:21:12.470Z,81.31
2017-09-05T02:23:40.788Z,81.65
2017-09-05T02:26:09.134Z,81.68
2017-09-05T02:28:37.451Z,81.26
2017-09-05T02:31:05.759Z,81.07
2017-09-05T02:33:34.103Z,81.17
2017-09-05T02:36:02.418Z,81.23
2017-09-05T02:38:30.745Z,81.19
2017-09-05T02:40:59.086Z,81.33
2017-09-05T02:43:27.425Z,81.08
2017-09-05T02:45:55.743Z,81.21
2017-09-05T02:48:24.084Z,81.40
2017-09-05T02:50:52.398Z,81.02
2017-09-05T02:53:20.752Z,81.19
2017-09-05T02:55:49.079Z,81.12
2017-09-05T02:58:17.396Z,81.69
2017-09-05T03:00:45.734Z,81.48
2017-09-05T03:03:14.054Z,81.26
2017-09-05T03:05:42.402Z,81.25
2017-09-05T03:08:10.727Z,81.32
2017-09-05T03:10:39.043Z,81.27
2017-09-05T03:13:07.390Z,80.91
2017-09-05T03:15:35.710Z,80.78
2017-09-05T03:18:04.025Z,81.06
2017-09-05T03:20:32.376Z,81.19
2017-09-05T03:23:00.690Z,81.34
2017-09-05T03:25:29.034Z,81.09
2017-09-05T03:27:57.359Z,81.29
2017-09-05T03:30:25.675Z,81.32
2017-09-05T03:32:54.015Z,82.32
2017-09-05T03:35:22.342Z,82.70
2017-09-05T03:37:50.682Z,82.68
2017-09-05T03:40:18.999Z,82.30
2017-09-05T03:42:47.324Z,82.49
2017-09-05T03:45:15.658Z,82.15
2017-09-05T03:47:43.980Z,82.99
2017-09-05T03:50:12.329Z,83.18
2017-09-05T03:52:40.643Z,83.67
2017-09-05T03:55:08.988Z,83.91
2017-09-05T03:57:37.299Z,83.96
2017-09-05T04:00:05.617Z,84.42
2017-09-05T04:02:33.962Z,83.84
2017-09-05T04:05:02.282Z,83.45
2017-09-05T04:07:30.601Z,84.00
2017-09-05T04:09:58.950Z,84.23
2017-09-05T04:12:27.258Z,83.91
2017-09-05T04:14:55.576Z,83.71
2017-09-05T04:17:23.915Z,83.90
2017-09-05T04:19:52.231Z,83.72
2017-09-05T04:22:20.546Z,83.25
2017-09-05T04:24:48.890Z,84.04
2017-09-05T04:27:17.212Z,84.01
2017-09-05T04:29:45.562Z,84.17
2017-09-05T04:32:13.879Z,83.84
2017-09-05T04:34:42.199Z,84.29
2017-09-05T04:37:10.539Z,83.69
2017-09-05T04:39:38.856Z,84.11
2017-09-05T04:42:07.201Z,84.43
2017-09-05T04:44:35.522Z,84.44
2017-09-05T04:47:03.856Z,84.31
2017-09-05T04:49:32.177Z,84.08
2017-09-05T04:52:00.523Z,84.07
2017-09-05T04:54:28.838Z,83.69
2017-09-05T04:56:57.151Z,83.44
2017-09-05T04:59:25.499Z,83.25
2017-09-05T05:01:53.811Z,83.82
2017-09-05T05:04:22.127Z,83.23
2017-09-05T05:06:51.231Z,82.93
2017-09-05T05:09:19.555Z,82.58
2017-09-05T05:11:47.886Z,82.66
2017-09-05T05:14:16.198Z,82.89
2017-09-05T05:16:44.559Z,82.17
2017-09-05T05:19:12.879Z,81.77
2017-09-05T05:21:41.244Z,81.68
2017-09-05T05:24:09.562Z,81.94
2017-09-05T05:26:37.885Z,81.79
2017-09-05T05:29:06.226Z,82.03
2017-09-05T05:31:34.551Z,82.25
2017-09-05T05:34:02.867Z,82.37
2017-09-05T05:36:31.208Z,82.12
2017-09-05T05:38:59.524Z,81.76
2017-09-05T05:41:27.875Z,81.72
2017-09-05T05:43:56.193Z,81.58
2017-09-05T05:46:24.542Z,81.84
2017-09-05T05:48:52.930Z,81.42
2017-09-05T05:51:21.329Z,81.31
2017-09-05T05:53:49.904Z,80.60
2017-09-05T05:56:18.222Z,80.19
2017-09-05T05:58:46.771Z,80.50
2017-09-05T06:01:15.424Z,80.58
2017-09-05T06:03:43.738Z,80.30
2017-09-05T06:06:12.058Z,80.56
2017-09-05T06:08:40.403Z,80.89
2017-09-05T06:11:08.714Z,81.56
2017-09-05T06:13:37.026Z,81.60
2017-09-05T06:16:05.382Z,82.07
2017-09-05T06:18:33.707Z,81.73
2017-09-05T06:21:02.063Z,82.56
2017-09-05T06:23:30.378Z,81.74
2017-09-05T06:25:58.694Z,81.87
2017-09-05T06:28:27.039Z,82.08
2017-09-05T06:30:55.354Z,82.12
2017-09-05T06:33:23.670Z,82.08
2017-09-05T06:35:52.014Z,81.56
2017-09-05T06:38:20.326Z,80.36
2017-09-05T06:40:48.638Z,80.85
2017-09-05T06:43:16.982Z,80.56
2017-09-05T06:45:45.513Z,81.19
2017-09-05T06:48:14.039Z,81.67
2017-09-05T06:50:42.373Z,81.53
2017-09-05T06:53:10.685Z,80.86
2017-09-05T06:55:39.023Z,80.73
2017-09-05T06:58:07.336Z,80.94
2017-09-05T07:00:35.674Z,80.39
2017-09-05T07:03:03.993Z,80.74
2017-09-05T07:05:32.307Z,80.77
2017-09-05T07:08:00.649Z,81.15
2017-09-05T07:10:28.963Z,80.40
2017-09-05T07:12:57.280Z,79.96
2017-09-05T07:15:25.621Z,80.09
2017-09-05T07:17:53.934Z,80.24
2017-09-05T07:20:22.270Z,80.02
2017-09-05T07:22:50.586Z,80.29
2017-09-05T07:25:18.902Z,79.62
2017-09-05T07:27:47.241Z,79.79
2017-09-05T07:30:15.558Z,80.30
2017-09-05T07:32:43.918Z,79.92
2017-09-05T07:35:12.236Z,80.89
2017-09-05T07:37:40.549Z,80.95
2017-09-05T07:40:08.894Z,81.34
2017-09-05T07:42:37.298Z,79.51
2017-09-05T07:45:05.618Z,78.69
2017-09-05T07:47:33.972Z,78.42
2017-09-05T07:50:02.288Z,79.01
2017-09-05T07:52:30.637Z,79.36
2017-09-05T07:54:58.949Z,77.97
2017-09-05T07:57:27.275Z,78.14
2017-09-05T07:59:55.630Z,78.89
2017-09-05T08:02:23.944Z,80.54
2017-09-05T08:04:52.319Z,80.41
2017-09-05T08:07:21.020Z,80.50
2017-09-05T08:09:49.334Z,80.71
2017-09-05T08:12:17.678Z,82.44
2017-09-05T08:14:45.994Z,80.87
2017-09-05T08:17:14.315Z,81.61
2017-09-05T08:19:42.658Z,80.89
2017-09-05T08:22:10.971Z,79.89
2017-09-05T08:24:39.318Z,79.75
2017-09-05T08:27:07.634Z,78.56
2017-09-05T08:29:35.973Z,80.57
2017-09-05T08:32:04.296Z,79.52
2017-09-05T08:34:32.650Z,80.02
2017-09-05T08:37:00.962Z,80.00
2017-09-05T08:39:29.278Z,79.52
2017-09-05T08:41:57.641Z,78.51
2017-09-05T08:44:25.959Z,77.69
2017-09-05T08:46:54.303Z,78.00
2017-09-05T08:49:22.634Z,77.62
2017-09-05T08:51:50.957Z,76.25
2017-09-05T08:54:19.299Z,76.49
2017-09-05T08:56:47.623Z,76.59
2017-09-05T08:59:15.962Z,75.96
2017-09-05T09:01:44.291Z,75.66
2017-09-05T09:04:12.635Z,76.39
2017-09-05T09:06:40.978Z,76.81
2017-09-05T09:09:09.306Z,74.81
2017-09-05T09:11:37.621Z,73.13
2017-09-05T09:14:05.974Z,72.01
2017-09-05T09:16:34.294Z,71.49
2017-09-05T09:19:02.635Z,71.48
2017-09-05T09:21:30.955Z,72.00
2017-09-05T09:23:59.291Z,70.76
2017-09-05T09:26:27.642Z,72.13
2017-09-05T09:28:55.965Z,72.70
2017-09-05T09:31:24.274Z,72.19
2017-09-05T09:33:52.627Z,71.59
2017-09-05T09:36:20.954Z,72.47
2017-09-05T09:38:49.294Z,72.24
2017-09-05T09:41:17.615Z,73.28
2017-09-05T09:43:45.931Z,73.24
2017-09-05T09:46:14.279Z,73.02
2017-09-05T09:48:42.642Z,72.14
2017-09-05T09:51:10.961Z,71.93
2017-09-05T09:53:39.306Z,73.00
2017-09-05T09:56:07.634Z,72.32
2017-09-05T09:58:35.951Z,72.50
2017-09-05T10:01:04.294Z,74.03
2017-09-05T10:03:32.627Z,73.28
2017-09-05T10:06:00.981Z,73.45
2017-09-05T10:08:29.298Z,73.27
2017-09-05T10:10:57.626Z,73.99
2017-09-05T10:13:25.981Z,73.62
2017-09-05T10:15:54.299Z,73.41
2017-09-05T10:18:22.614Z,74.53
2017-09-05T10:20:50.946Z,73.00
2017-09-05T10:23:19.269Z,72.53
2017-09-05T10:25:47.602Z,73.07
2017-09-05T10:28:15.921Z,74.30
2017-09-05T10:30:44.270Z,74.95
2017-09-05T10:33:12.587Z,73.82
2017-09-05T10:35:40.923Z,72.97
2017-09-05T10:38:09.278Z,71.69
2017-09-05T10:40:37.600Z,72.57
2017-09-05T10:43:05.915Z,72.17
2017-09-05T10:45:34.259Z,70.93
2017-09-05T10:48:02.653Z,70.18
2017-09-05T10:50:31.001Z,70.85
2017-09-05T10:52:59.332Z,67.76
2017-09-05T10:55:27.651Z,67.24
2017-09-05T10:57:55.999Z,66.16
2017-09-05T11:00:24.326Z,66.37
2017-09-05T11:02:52.646Z,67.75
2017-09-05T11:05:20.998Z,68.85
2017-09-05T11:07:49.314Z,68.29
2017-09-05T11:10:17.631Z,68.04
2017-09-05T11:12:45.970Z,69.59
2017-09-05T11:15:14.304Z,68.39
2017-09-05T11:17:42.651Z,67.84
2017-09-05T11:20:10.966Z,68.25
2017-09-05T11:22:39.284Z,68.66
2017-09-05T11:25:07.628Z,68.01
2017-09-05T11:27:35.949Z,67.67
2017-09-05T11:30:04.267Z,65.83
2017-09-05T11:32:32.610Z,66.34
2017-09-05T11:35:00.922Z,64.53
2017-09-05T11:37:29.238Z,64.78
2017-09-05T11:39:57.580Z,63.44
2017-09-05T11:42:25.898Z,62.42
2017-09-05T11:44:54.218Z,64.30
2017-09-05T11:47:22.558Z,62.16
2017-09-05T11:49:50.874Z,62.79
2017-09-05T11:52:19.210Z,62.68
2017-09-05T11:54:47.525Z,61.28
2017-09-05T11:57:15.865Z,61.54
2017-09-05T11:59:44.180Z,60.33
2017-09-05T12:02:12.496Z,62.13
2017-09-05T12:04:40.834Z,59.75
2017-09-05T12:07:09.160Z,60.36
2017-09-05T12:09:37.483Z,58.21
2017-09-05T12:12:05.822Z,57.72
2017-09-05T12:14:34.135Z,56.29
2017-09-05T12:17:02.463Z,56.18
2017-09-05T12:19:30.813Z,56.50
2017-09-05T12:21:59.126Z,55.70
2017-09-05T12:24:27.473Z,56.40
2017-09-05T12:26:55.788Z,55.82
2017-09-05T12:29:24.106Z,57.23
2017-09-05T12:31:52.445Z,57.22
2017-09-05T12:34:20.758Z,57.25
2017-09-05T12:36:49.080Z,57.03
2017-09-05T12:39:17.436Z,56.22
2017-09-05T12:41:45.766Z,58.28
2017-09-05T12:44:14.084Z,55.67
2017-09-05T12:46:42.458Z,55.87
2017-09-05T12:49:10.770Z,56.13
2017-09-05T12:51:39.082Z,52.13
2017-09-05T12:54:07.430Z,54.14
2017-09-05T12:56:35.750Z,52.97
2017-09-05T12:59:04.063Z,54.69
2017-09-05T13:01:32.406Z,55.40
2017-09-05T13:04:00.732Z,56.37
2017-09-05T13:06:29.046Z,56.14
2017-09-05T13:08:57.386Z,56.11
2017-09-05T13:11:25.701Z,57.38
2017-09-05T13:13:54.038Z,57.68
2017-09-05T13:16:22.351Z,57.99
2017-09-05T13:18:50.680Z,58.70
2017-09-05T13:21:19.019Z,60.34
2017-09-05T13:23:47.333Z,61.30
2017-09-05T13:26:15.653Z,60.84
2017-09-05T13:28:43.997Z,59.52
2017-09-05T13:31:12.315Z,59.93
2017-09-05T13:33:40.672Z,60.02
2017-09-05T13:36:08.997Z,60.11
2017-09-05T13:38:37.343Z,60.70
2017-09-05T13:41:05.672Z,59.49
2017-09-05T13:43:33.996Z,58.21
2017-09-05T13:46:02.363Z,57.13
2017-09-05T13:48:30.685Z,53.48
2017-09-05T13:50:59.002Z,50.92
2017-09-05T13:53:27.345Z,49.58
2017-09-05T13:55:55.672Z,49.00
2017-09-05T13:58:24.018Z,49.96
2017-09-05T14:00:52.333Z,51.58
2017-09-05T14:03:20.662Z,53.53
2017-09-05T14:05:49.002Z,56.44
2017-09-05T14:08:17.318Z,56.87
2017-09-05T14:10:45.669Z,57.82
2017-09-05T14:13:13.982Z,58.66
2017-09-05T14:15:42.322Z,59.40
2017-09-05T14:18:10.642Z,59.23
2017-09-05T14:20:38.966Z,59.72
2017-09-05T14:23:07.310Z,60.78
2017-09-05T14:25:35.639Z,60.78
2017-09-05T14:28:03.966Z,60.90
2017-09-05T14:30:32.312Z,61.14
2017-09-05T14:33:00.637Z,62.19
2017-09-05T14:35:28.979Z,62.47
2017-09-05T14:37:57.300Z,63.44
2017-09-05T14:40:25.615Z,62.70
2017-09-05T14:42:53.958Z,61.83
2017-09-05T14:45:22.278Z,61.12
2017-09-05T14:47:50.625Z,62.33
2017-09-05T14:50:18.947Z,62.33
2017-09-05T14:52:47.295Z,62.34
2017-09-05T14:55:15.618Z,63.34
2017-09-05T14:57:43.941Z,63.15
2017-09-05T15:00:12.281Z,64.07
2017-09-05T15:02:40.606Z,64.05
2017-09-05T15:05:08.922Z,64.22
2017-09-05T15:07:37.272Z,64.20
2017-09-05T15:10:05.591Z,64.54
2017-09-05T15:12:33.906Z,65.45
2017-09-05T15:15:02.247Z,65.63
2017-09-05T15:17:30.567Z,66.28
2017-09-05T15:19:58.901Z,65.05
2017-09-05T15:22:27.262Z,65.60
2017-09-05T15:24:55.590Z,65.78
2017-09-05T15:27:23.937Z,65.93
2017-09-05T15:29:52.267Z,65.36
2017-09-05T15:32:20.592Z,65.55
2017-09-05T15:34:48.944Z,65.84
2017-09-05T15:37:17.270Z,66.16
2017-09-05T15:39:45.613Z,66.36
2017-09-05T15:42:13.927Z,66.68
2017-09-05T15:44:42.280Z,66.01
2017-09-05T15:47:10.608Z,65.73
2017-09-05T15:49:38.936Z,66.00
2017-09-05T15:52:07.282Z,65.25
2017-09-05T15:54:35.616Z,65.55
2017-09-05T15:57:03.962Z,65.48
2017-09-05T15:59:32.279Z,65.58
2017-09-05T16:02:00.603Z,66.13
2017-09-05T16:04:28.950Z,65.55
2017-09-05T16:06:57.276Z,66.76
2017-09-05T16:09:25.623Z,66.57
2017-09-05T16:11:53.950Z,66.72
2017-09-05T16:14:22.259Z,67.01
2017-09-05T16:16:50.600Z,68.27
2017-09-05T16:19:18.919Z,67.81
2017-09-05T16:21:47.238Z,67.36
2017-09-05T16:24:15.636Z,67.66
2017-09-05T16:26:44.227Z,67.67
2017-09-05T16:29:12.570Z,68.34
2017-09-05T16:31:40.890Z,67.96
2017-09-05T16:34:09.250Z,68.31
2017-09-05T16:36:37.571Z,67.63
2017-09-05T16:39:05.900Z,66.95
2017-09-05T16:41:34.249Z,66.67
2017-09-05T16:44:02.574Z,65.97
2017-09-05T16:46:30.900Z,66.51
2017-09-05T16:48:59.249Z,66.75
2017-09-05T16:51:27.569Z,67.04
2017-09-05T16:53:55.887Z,67.76
2017-09-05T16:56:24.236Z,68.09
2017-09-05T16:58:52.555Z,67.02
2017-09-05T17:01:20.910Z,67.46
2017-09-05T17:03:49.232Z,67.35
2017-09-05T17:06:17.546Z,67.65
2017-09-05T17:08:45.900Z,67.53
2017-09-05T17:11:14.222Z,68.18
2017-09-05T17:13:42.576Z,69.22
2017-09-05T17:16:10.901Z,69.61
2017-09-05T17:18:39.243Z,69.82
2017-09-05T17:21:07.569Z,70.10
2017-09-05T17:23:35.893Z,70.16
2017-09-05T17:26:04.241Z,70.63
2017-09-05T17:28:32.586Z,70.80
2017-09-05T17:31:00.914Z,70.78
2017-09-05T17:33:29.234Z,70.77
2017-09-05T17:35:57.602Z,71.63
2017-09-05T17:38:25.915Z,71.87
2017-09-05T17:40:54.230Z,72.12
2017-09-05T17:43:22.605Z,71.82
2017-09-05T17:45:50.922Z,72.45
2017-09-05T17:48:19.255Z,73.07
2017-09-05T17:50:47.610Z,72.45
2017-09-05T17:53:15.929Z,72.62
2017-09-05T17:55:44.309Z,72.18
2017-09-05T17:58:12.654Z,72.34
2017-09-05T18:00:40.970Z,72.50
2017-09-05T18:03:09.311Z,73.31
2017-09-05T18:05:37.624Z,73.15
2017-09-05T18:08:05.944Z,74.32
2017-09-05T18:10:34.293Z,74.90
2017-09-05T18:13:02.619Z,75.24
2017-09-05T18:15:30.972Z,74.34
2017-09-05T18:17:59.286Z,74.87
2017-09-05T18:20:27.619Z,75.75
2017-09-05T18:22:55.967Z,75.51
2017-09-05T18:25:24.286Z,76.07
2017-09-05T18:27:52.610Z,75.40
2017-09-05T18:30:20.950Z,75.10
2017-09-05T18:32:49.267Z,74.88
2017-09-05T18:35:17.612Z,75.58
2017-09-05T18:37:45.935Z,75.54
2017-09-05T18:40:14.258Z,76.20
2017-09-05T18:42:42.607Z,75.83
2017-09-05T18:45:10.929Z,75.28
2017-09-05T18:47:39.278Z,75.60
2017-09-05T18:50:07.608Z,76.55
2017-09-05T18:52:35.958Z,76.02
2017-09-05T18:55:04.285Z,76.65
2017-09-05T18:57:32.634Z,76.69
2017-09-05T19:00:00.982Z,77.19
2017-09-05T19:02:29.300Z,77.33
2017-09-05T19:04:57.642Z,76.96
2017-09-05T19:07:25.969Z,76.80
2017-09-05T19:09:54.327Z,76.82
2017-09-05T19:12:22.648Z,77.09
2017-09-05T19:14:50.975Z,76.31
2017-09-05T19:17:19.336Z,76.30
2017-09-05T19:19:47.658Z,76.00
2017-09-05T19:22:15.996Z,75.83
2017-09-05T19:24:44.346Z,76.44
2017-09-05T19:27:12.672Z,76.29
2017-09-05T19:29:40.994Z,76.33
2017-09-05T19:32:09.344Z,75.63
2017-09-05T19:34:37.668Z,75.28
2017-09-05T19:37:05.993Z,75.14
2017-09-05T19:39:34.360Z,75.23
2017-09-05T19:42:02.682Z,75.39
2017-09-05T19:44:31.027Z,75.07
2017-09-05T19:46:59.351Z,75.32
2017-09-05T19:49:27.744Z,76.44
2017-09-05T19:51:56.089Z,76.40
2017-09-05T19:54:24.436Z,76.99
2017-09-05T19:56:52.762Z,77.39
2017-09-05T19:59:21.082Z,77.93
2017-09-05T20:01:49.442Z,77.20
2017-09-05T20:04:17.767Z,76.81
2017-09-05T20:06:46.095Z,76.62
2017-09-05T20:09:14.523Z,77.05
2017-09-05T20:11:42.839Z,77.62
2017-09-05T20:14:11.193Z,78.60
2017-09-05T20:16:39.516Z,78.78
2017-09-05T20:19:07.846Z,78.26
2017-09-05T20:21:36.189Z,78.30
2017-09-05T20:24:04.505Z,78.14
2017-09-05T20:26:32.850Z,77.72
2017-09-05T20:29:01.162Z,77.76
2017-09-05T20:31:29.471Z,78.08
2017-09-05T20:33:58.329Z,78.64
2017-09-05T20:36:26.922Z,78.46
2017-09-05T20:38:55.762Z,78.28
2017-09-05T20:41:25.025Z,78.10
2017-09-05T20:43:54.056Z,78.89
2017-09-05T20:46:22.560Z,78.63
2017-09-05T20:48:50.894Z,78.94
2017-09-05T20:51:19.224Z,79.19
2017-09-05T20:53:47.571Z,79.10
2017-09-05T20:56:15.894Z,79.00
2017-09-05T20:58:44.219Z,78.97
2017-09-05T21:01:12.579Z,78.65
2017-09-05T21:03:41.010Z,78.68
2017-09-05T21:06:09.352Z,79.06
2017-09-05T21:08:37.707Z,78.87
2017-09-05T21:11:06.037Z,78.99
2017-09-05T21:13:34.364Z,78.98
2017-09-05T21:16:02.707Z,79.66
2017-09-05T21:18:31.034Z,79.74
2017-09-05T21:20:59.380Z,79.35
2017-09-05T21:23:27.694Z,79.26
2017-09-05T21:25:56.009Z,79.10
2017-09-05T21:28:24.355Z,79.26
2017-09-05T21:30:52.682Z,79.11
2017-09-05T21:33:21.019Z,79.34
2017-09-05T21:35:49.365Z,79.67
2017-09-05T21:38:17.701Z,79.63
2017-09-05T21:40:46.030Z,79.45
2017-09-05T21:43:14.370Z,79.41
2017-09-05T21:45:42.694Z,79.52
2017-09-05T21:48:11.018Z,79.36
2017-09-05T21:50:39.367Z,79.83
2017-09-05T21:53:07.683Z,79.83
2017-09-05T21:55:36.002Z,80.09
2017-09-05T21:58:04.348Z,80.28
2017-09-05T22:00:32.675Z,80.14
2017-09-05T22:03:00.994Z,79.97
2017-09-05T22:05:29.346Z,79.89
2017-09-05T22:07:57.679Z,80.39
2017-09-05T22:10:25.999Z,80.05
2017-09-05T22:12:54.360Z,79.67
2017-09-05T22:15:28.135Z,79.36
2017-09-05T22:17:56.499Z,79.05
2017-09-05T22:20:30.303Z,78.74
2017-09-05T22:22:59.306Z,78.59
2017-09-05T22:25:33.187Z,78.79
2017-09-05T22:28:06.995Z,79.24
2017-09-05T22:30:35.310Z,79.42
2017-09-05T22:33:03.882Z,79.65
2017-09-05T22:35:32.235Z,80.89
2017-09-05T22:38:00.550Z,81.20
2017-09-05T22:40:28.870Z,80.79
2017-09-05T22:42:57.226Z,82.82
2017-09-05T22:45:25.552Z,82.13
2017-09-05T22:47:53.883Z,82.24
2017-09-05T22:50:22.227Z,82.33
2017-09-05T22:52:50.561Z,82.21
2017-09-05T22:55:18.880Z,84.66
2017-09-05T22:57:47.239Z,83.92
2017-09-05T23:00:15.568Z,85.47
2017-09-05T23:02:43.894Z,85.98
2017-09-05T23:05:12.243Z,85.45
2017-09-05T23:07:40.569Z,85.93
2017-09-05T23:10:08.906Z,86.33
2017-09-05T23:12:37.251Z,85.61
2017-09-05T23:15:05.571Z,85.16
2017-09-05T23:17:33.890Z,85.24
2017-09-05T23:20:02.271Z,85.32
2017-09-05T23:22:30.589Z,86.40
2017-09-05T23:24:58.915Z,86.33
2017-09-05T23:27:27.263Z,85.65
2017-09-05T23:29:55.587Z,84.92
2017-09-05T23:32:23.908Z,84.35
2017-09-05T23:34:52.266Z,83.65
2017-09-05T23:37:20.586Z,84.13
2017-09-05T23:39:48.926Z,86.40
2017-09-05T23:42:17.279Z,86.35
2017-09-05T23:44:45.608Z,86.25
2017-09-05T23:47:13.929Z,85.95
2017-09-05T23:49:42.282Z,86.39
2017-09-05T23:52:10.603Z,85.29
2017-09-05T23:54:38.927Z,84.52
2017-09-05T23:57:07.283Z,83.65
2017-09-05T23:59:35.598Z,82.93
